Time;durP1;ratioP1;P1;durP2;ratioP2;P2;SDS_P1;SDS_P2;PMS_P1;PMS_P2;Temp;Humidity;BMP_temperature;BMP_pressure;BME280_temperature;BME280_humidity;BME280_pressure;Samples;Min_cycle;Max_cycle;Signal;HPM_P1;HPM_P2
2021/12/28 00:01:08;;;;;;;21.30;10.60;;;;;;;-4.02;82.66;100922.75;105859;1272;72633;-71
2021/12/28 00:03:42;;;;;;;21.00;10.60;;;;;;;-3.99;83.14;100921.02;105938;1272;60548;-71
2021/12/28 00:06:12;;;;;;;19.50;10.50;;;;;;;-4.00;82.57;100926.14;105901;1272;61364;-71
2021/12/28 00:08:42;;;;;;;20.10;9.80;;;;;;;-4.02;82.74;100930.06;105886;1274;74227;-71
2021/12/28 00:11:11;;;;;;;17.70;9.10;;;;;;;-4.02;82.71;100933.81;106088;1272;69655;-69
2021/12/28 00:13:43;;;;;;;19.50;9.90;;;;;;;-3.94;82.51;100939.68;106488;1271;70646;-71
2021/12/28 00:16:29;;;;;;;19.30;10.20;;;;;;;-3.93;82.57;100939.86;106070;1272;75383;-73
2021/12/28 00:19:02;;;;;;;19.70;10.60;;;;;;;-4.01;82.71;100942.98;105969;1269;59536;-71
2021/12/28 00:21:31;;;;;;;19.90;10.50;;;;;;;-3.94;82.69;100933.57;105842;1273;62051;-71
2021/12/28 00:24:01;;;;;;;22.30;10.80;;;;;;;-3.97;83.05;100925.61;105882;1272;75378;-71
2021/12/28 00:26:31;;;;;;;22.60;11.00;;;;;;;-4.00;82.60;100907.59;105973;1270;72169;-73
2021/12/28 00:29:00;;;;;;;23.20;11.30;;;;;;;-4.07;83.08;100906.45;105878;1272;70278;-71
2021/12/28 00:31:29;;;;;;;22.70;11.20;;;;;;;-4.07;83.29;100915.65;105826;1272;74181;-72
2021/12/28 00:33:58;;;;;;;23.60;11.50;;;;;;;-4.06;83.29;100915.46;105974;1271;61991;-72
2021/12/28 00:36:28;;;;;;;26.70;12.20;;;;;;;-4.02;83.11;100918.34;106489;1272;61724;-70
2021/12/28 00:38:57;;;;;;;23.00;11.40;;;;;;;-3.98;83.12;100915.23;106551;1272;72596;-75
2021/12/28 00:41:26;;;;;;;23.80;11.70;;;;;;;-3.96;82.75;100906.19;106022;1270;70727;-76
2021/12/28 00:43:55;;;;;;;21.10;10.90;;;;;;;-3.96;82.64;100899.04;105788;1272;68763;-76
2021/12/28 00:46:24;;;;;;;18.70;11.30;;;;;;;-3.92;82.67;100904.11;105932;1272;73012;-74
2021/12/28 00:48:54;;;;;;;23.20;11.10;;;;;;;-3.89;82.35;100911.23;105845;1272;59653;-72
2021/12/28 00:51:23;;;;;;;24.30;11.50;;;;;;;-3.88;82.49;100900.31;105952;1272;60420;-70
2021/12/28 00:53:52;;;;;;;20.50;11.30;;;;;;;-4.02;82.37;100890.59;105846;1272;73433;-71
2021/12/28 00:56:21;;;;;;;21.80;12.40;;;;;;;-3.93;82.69;100887.95;105783;1273;70799;-73
2021/12/28 00:58:50;;;;;;;24.20;11.80;;;;;;;-3.87;82.71;100885.00;106004;1269;68790;-72
2021/12/28 01:01:19;;;;;;;22.80;11.60;;;;;;;-3.88;81.95;100885.02;105953;1270;71550;-72
2021/12/28 01:03:48;;;;;;;22.70;11.80;;;;;;;-3.94;81.75;100893.06;105785;1271;59672;-71
2021/12/28 01:06:22;;;;;;;25.10;11.70;;;;;;;-3.90;81.89;100907.14;105910;1270;59006;-70
2021/12/28 01:08:52;;;;;;;22.90;11.70;;;;;;;-3.88;81.86;100911.90;105847;1272;72731;-72
2021/12/28 01:11:21;;;;;;;26.00;12.00;;;;;;;-3.75;81.69;100908.70;105894;1272;72028;-70
2021/12/28 01:13:50;;;;;;;25.00;12.20;;;;;;;-3.76;81.54;100904.96;105788;1271;69228;-72
2021/12/28 01:16:19;;;;;;;24.20;11.80;;;;;;;-3.71;81.12;100907.48;106057;1269;72842;-72
2021/12/28 01:18:48;;;;;;;21.30;11.40;;;;;;;-3.73;80.95;100907.98;106044;1268;62048;-72
2021/12/28 01:21:19;;;;;;;24.30;11.10;;;;;;;-3.78;81.15;100911.11;106028;1270;61893;-71
2021/12/28 01:23:48;;;;;;;22.60;11.40;;;;;;;-3.72;80.95;100902.73;105886;1272;76425;-73
2021/12/28 01:26:17;;;;;;;28.30;13.60;;;;;;;-3.68;81.07;100898.93;106086;1270;72620;-71
2021/12/28 01:28:45;;;;;;;23.70;12.00;;;;;;;-3.72;81.27;100907.31;105939;1272;69867;-71
2021/12/28 01:31:15;;;;;;;29.20;12.80;;;;;;;-3.80;80.94;100898.88;105753;1271;74803;-71
2021/12/28 01:33:44;;;;;;;24.30;12.50;;;;;;;-3.74;81.24;100888.43;106086;1270;61311;-71
2021/12/28 01:36:13;;;;;;;21.70;12.30;;;;;;;-3.70;80.75;100884.48;105861;1272;61321;-71
2021/12/28 01:38:42;;;;;;;31.30;13.30;;;;;;;-3.78;81.00;100884.23;106040;1269;74495;-71
2021/12/28 01:41:11;;;;;;;24.90;12.70;;;;;;;-3.80;81.22;100887.30;105860;1271;72474;-71
2021/12/28 01:43:42;;;;;;;26.30;13.20;;;;;;;-3.79;81.15;100884.56;106093;1272;69236;-71
2021/12/28 01:46:12;;;;;;;27.00;12.60;;;;;;;-3.74;81.04;100876.86;105987;1272;75491;-71
2021/12/28 01:48:42;;;;;;;26.20;12.60;;;;;;;-3.72;80.93;100874.46;105849;1272;59907;-72
2021/12/28 01:51:19;;;;;;;27.90;12.50;;;;;;;-3.75;81.15;100871.27;106047;1272;59982;-71
2021/12/28 01:53:52;;;;;;;30.10;12.90;;;;;;;-3.75;81.21;100866.15;105847;1272;72521;-72
2021/12/28 01:56:40;;;;;;;24.90;12.80;;;;;;;-3.72;81.60;100861.70;105855;1269;72418;-71
2021/12/28 01:59:14;;;;;;;26.50;13.70;;;;;;;-3.87;81.50;100865.95;105905;1272;70419;-70
2021/12/28 02:01:45;;;;;;;29.60;12.40;;;;;;;-3.85;81.66;100873.23;105994;1269;73938;-69
2021/12/28 02:04:24;;;;;;;29.10;14.30;;;;;;;-3.89;81.66;100871.93;106110;1272;61167;-71
2021/12/28 02:07:02;;;;;;;30.20;13.80;;;;;;;-3.85;81.82;100873.40;107507;1269;60476;-70
2021/12/28 02:09:31;;;;;;;29.10;13.70;;;;;;;-3.94;82.57;100870.45;105829;1272;73714;-70
2021/12/28 02:12:00;;;;;;;29.30;14.10;;;;;;;-3.86;81.99;100862.02;106077;1271;73820;-70
2021/12/28 02:14:29;;;;;;;27.20;12.90;;;;;;;-3.89;82.11;100864.59;105844;1270;71145;-70
2021/12/28 02:16:58;;;;;;;27.30;13.50;;;;;;;-3.88;82.28;100870.38;105904;1271;74878;-70
2021/12/28 02:19:27;;;;;;;28.60;14.80;;;;;;;-3.87;81.86;100871.73;105860;1271;62671;-71
2021/12/28 02:21:56;;;;;;;32.60;14.00;;;;;;;-3.87;81.78;100880.75;105682;1269;61721;-70
2021/12/28 02:24:24;;;;;;;30.00;15.80;;;;;;;-3.86;82.21;100883.29;105934;1271;75533;-70
2021/12/28 02:26:53;;;;;;;33.50;15.50;;;;;;;-3.81;82.45;100883.08;105981;1271;72708;-71
2021/12/28 02:29:22;;;;;;;33.00;14.50;;;;;;;-3.71;82.40;100878.20;105978;1271;69545;-71
2021/12/28 02:31:55;;;;;;;32.00;14.00;;;;;;;-3.72;81.62;100885.69;105848;1272;75020;-71
2021/12/28 02:34:26;;;;;;;32.00;14.00;;;;;;;-3.78;81.24;100889.49;105844;1272;59738;-73
2021/12/28 02:36:56;;;;;;;31.70;14.80;;;;;;;-3.76;81.64;100892.55;106004;1269;58992;-71
2021/12/28 02:39:25;;;;;;;26.40;13.80;;;;;;;-3.74;81.35;100886.20;105861;1272;74791;-70
2021/12/28 02:41:54;;;;;;;30.90;15.10;;;;;;;-3.72;81.05;100882.64;106057;1269;73363;-70
2021/12/28 02:44:23;;;;;;;32.60;14.80;;;;;;;-3.70;81.35;100883.80;105850;1272;68893;-71
2021/12/28 02:46:53;;;;;;;32.60;14.50;;;;;;;-3.79;81.41;100887.13;105885;1271;72392;-70
2021/12/28 02:49:23;;;;;;;29.40;13.90;;;;;;;-3.76;81.03;100887.95;106007;1269;60480;-70
2021/12/28 02:51:52;;;;;;;28.10;13.90;;;;;;;-3.77;81.20;100883.86;105898;1272;61819;-70
2021/12/28 02:54:21;;;;;;;28.70;13.20;;;;;;;-3.80;81.41;100877.95;105952;1270;74086;-70
2021/12/28 02:56:49;;;;;;;31.60;14.70;;;;;;;-3.79;81.16;100863.64;105981;1269;72305;-71
2021/12/28 02:59:18;;;;;;;27.10;14.40;;;;;;;-3.76;81.12;100861.73;105948;1269;69501;-72
2021/12/28 03:01:48;;;;;;;28.30;13.80;;;;;;;-3.89;81.15;100869.71;106046;1272;73966;-71
2021/12/28 03:04:17;;;;;;;31.00;13.40;;;;;;;-3.92;81.60;100872.63;105814;1272;59124;-71
2021/12/28 03:06:46;;;;;;;27.20;13.30;;;;;;;-4.01;81.57;100875.79;105876;1272;59730;-71
2021/12/28 03:09:18;;;;;;;31.40;14.30;;;;;;;-4.00;81.70;100876.96;105804;1271;74864;-71
2021/12/28 03:11:48;;;;;;;29.30;13.50;;;;;;;-3.91;81.61;100873.65;105935;1269;72680;-70
2021/12/28 03:14:17;;;;;;;25.70;14.00;;;;;;;-3.87;81.36;100865.09;105951;1269;71136;-70
2021/12/28 03:16:46;;;;;;;26.20;13.50;;;;;;;-3.90;81.16;100860.02;105890;1269;72410;-71
2021/12/28 03:19:16;;;;;;;31.80;13.70;;;;;;;-3.95;81.76;100859.55;106099;1269;62240;-71
2021/12/28 03:21:46;;;;;;;28.60;13.70;;;;;;;-3.91;81.49;100862.26;105953;1269;60332;-71
2021/12/28 03:24:16;;;;;;;30.90;14.40;;;;;;;-3.97;81.35;100860.95;106006;1272;73817;-72
2021/12/28 03:26:45;;;;;;;31.80;14.50;;;;;;;-3.97;81.15;100858.05;106194;1269;71594;-72
2021/12/28 03:29:14;;;;;;;28.80;13.20;;;;;;;-4.01;81.34;100862.52;105950;1272;71489;-71
2021/12/28 03:31:43;;;;;;;30.50;14.60;;;;;;;-4.05;81.27;100859.66;106457;1272;73572;-71
2021/12/28 03:34:13;;;;;;;26.70;13.60;;;;;;;-4.04;82.35;100852.15;106190;1269;62027;-71
2021/12/28 03:36:42;;;;;;;30.10;13.60;;;;;;;-4.01;81.65;100846.35;106024;1269;59653;-69
2021/12/28 03:39:12;;;;;;;26.20;12.10;;;;;;;-4.02;81.56;100851.30;106005;1269;73625;-70
2021/12/28 03:41:41;;;;;;;28.40;12.70;;;;;;;-4.11;81.78;100849.68;106047;1269;70452;-71
2021/12/28 03:44:10;;;;;;;27.00;13.90;;;;;;;-4.05;81.65;100847.92;106146;1270;68454;-72
2021/12/28 03:46:39;;;;;;;30.70;13.90;;;;;;;-4.08;81.67;100851.52;106223;1272;71994;-71
2021/12/28 03:49:08;;;;;;;27.20;12.60;;;;;;;-4.15;81.73;100854.32;106145;1269;58946;-71
2021/12/28 03:51:38;;;;;;;26.40;12.60;;;;;;;-4.14;81.82;100852.77;106113;1269;62360;-73
2021/12/28 03:54:07;;;;;;;27.50;13.00;;;;;;;-4.15;81.68;100846.84;106106;1271;75599;-70
2021/12/28 03:56:36;;;;;;;30.00;13.60;;;;;;;-4.11;81.98;100850.88;106061;1272;70282;-70
2021/12/28 03:59:05;;;;;;;25.70;12.10;;;;;;;-4.14;81.70;100854.82;106164;1269;67994;-70
2021/12/28 04:01:34;;;;;;;29.20;13.70;;;;;;;-4.20;81.98;100859.46;106069;1271;72460;-70
2021/12/28 04:04:04;;;;;;;25.60;12.40;;;;;;;-4.14;82.06;100861.44;106275;1266;62207;-71
2021/12/28 04:06:34;;;;;;;28.90;13.40;;;;;;;-4.06;82.22;100865.79;106276;1269;59349;-70
2021/12/28 04:09:06;;;;;;;23.40;12.50;;;;;;;-4.13;82.19;100865.69;106290;1268;74369;-70
2021/12/28 04:11:35;;;;;;;32.70;13.50;;;;;;;-4.15;81.46;100865.89;106268;1266;70059;-70
2021/12/28 04:14:07;;;;;;;28.90;13.60;;;;;;;-4.10;81.64;100858.68;106082;1270;68735;-68
2021/12/28 04:16:36;;;;;;;23.60;11.70;;;;;;;-4.08;82.15;100857.48;106115;1270;71977;-69
2021/12/28 04:19:06;;;;;;;25.90;13.50;;;;;;;-4.09;81.69;100856.29;106305;1266;59948;-69
2021/12/28 04:21:35;;;;;;;25.40;12.40;;;;;;;-4.11;81.54;100850.36;106134;1270;60521;-68
2021/12/28 04:24:05;;;;;;;29.50;13.40;;;;;;;-4.18;81.49;100852.46;106228;1266;74512;-69
2021/12/28 04:26:35;;;;;;;26.10;11.80;;;;;;;-4.21;81.67;100848.25;106193;1270;71396;-68
2021/12/28 04:29:04;;;;;;;25.70;12.90;;;;;;;-4.15;82.15;100852.44;106203;1269;69224;-70
2021/12/28 04:31:34;;;;;;;28.40;12.70;;;;;;;-4.13;82.06;100850.05;106236;1270;72287;-69
2021/12/28 04:34:03;;;;;;;28.80;12.80;;;;;;;-4.22;81.71;100849.27;106139;1266;59298;-70
2021/12/28 04:36:33;;;;;;;30.90;13.60;;;;;;;-4.25;81.95;100848.80;106096;1271;61359;-70
2021/12/28 04:39:05;;;;;;;30.10;13.80;;;;;;;-4.26;81.93;100848.80;106096;1269;72505;-69
2021/12/28 04:41:37;;;;;;;25.30;12.20;;;;;;;-4.33;81.82;100851.26;105853;1273;73175;-70
2021/12/28 04:44:09;;;;;;;24.70;12.10;;;;;;;-4.37;82.35;100855.38;105763;1274;69046;-70
2021/12/28 04:46:38;;;;;;;23.40;12.50;;;;;;;-4.34;82.45;100860.12;105836;1269;74504;-69
2021/12/28 04:49:07;;;;;;;27.30;12.80;;;;;;;-4.35;82.52;100859.77;105995;1271;62962;-70
2021/12/28 04:51:36;;;;;;;25.70;12.00;;;;;;;-4.31;82.56;100855.14;105958;1270;60405;-70
2021/12/28 04:54:11;;;;;;;29.50;10.90;;;;;;;-4.22;82.03;100848.42;105943;1270;76088;-70
2021/12/28 04:56:40;;;;;;;20.30;9.90;;;;;;;-4.21;81.80;100845.52;106105;1269;74039;-69
2021/12/28 04:59:09;;;;;;;21.40;10.80;;;;;;;-4.20;82.05;100845.35;105974;1272;69160;-68
2021/12/28 05:01:38;;;;;;;19.50;9.70;;;;;;;-4.19;81.90;100842.11;105940;1269;71185;-70
2021/12/28 05:04:08;;;;;;;21.10;10.30;;;;;;;-4.21;81.81;100845.70;106053;1269;58888;-68
2021/12/28 05:06:38;;;;;;;23.40;12.00;;;;;;;-4.22;81.93;100846.55;105934;1269;61370;-69
2021/12/28 05:09:11;;;;;;;20.90;9.90;;;;;;;-4.26;81.57;100848.81;106054;1269;75384;-69
2021/12/28 05:11:40;;;;;;;24.70;10.80;;;;;;;-4.24;81.89;100849.64;105924;1269;71913;-69
2021/12/28 05:14:10;;;;;;;22.80;12.00;;;;;;;-4.30;81.77;100846.46;105868;1269;69135;-71
2021/12/28 05:16:39;;;;;;;25.00;11.70;;;;;;;-4.35;81.68;100843.96;105880;1272;73373;-70
2021/12/28 05:19:09;;;;;;;23.20;10.90;;;;;;;-4.35;81.65;100838.19;105885;1272;59672;-70
2021/12/28 05:21:39;;;;;;;24.00;10.90;;;;;;;-4.36;81.85;100840.40;101936;1272;5350936;-70
2021/12/28 05:24:08;;;;;;;23.20;11.40;;;;;;;-4.35;82.08;100845.14;105875;1272;75441;-71
2021/12/28 05:26:37;;;;;;;21.60;10.80;;;;;;;-4.35;82.06;100849.23;106078;1269;72825;-71
2021/12/28 05:29:06;;;;;;;24.50;11.40;;;;;;;-4.43;81.89;100855.77;106040;1269;70120;-72
2021/12/28 05:31:35;;;;;;;21.50;11.10;;;;;;;-4.41;82.02;100855.56;106017;1269;73936;-72
2021/12/28 05:34:07;;;;;;;23.60;10.50;;;;;;;-4.38;82.07;100860.46;106068;1271;62055;-70
2021/12/28 05:36:36;;;;;;;19.70;10.20;;;;;;;-4.44;82.00;100865.79;106034;1271;61571;-69
2021/12/28 05:39:06;;;;;;;18.90;9.60;;;;;;;-4.36;81.93;100864.03;105994;1269;75019;-70
2021/12/28 05:41:35;;;;;;;19.50;10.60;;;;;;;-4.40;82.15;100865.09;106073;1269;72157;-69
2021/12/28 05:44:04;;;;;;;21.70;10.40;;;;;;;-4.51;81.84;100869.25;105891;1269;71449;-70
2021/12/28 05:46:33;;;;;;;23.00;10.70;;;;;;;-4.52;82.43;100870.63;106016;1269;72126;-71
2021/12/28 05:49:04;;;;;;;17.20;9.20;;;;;;;-4.46;82.64;100878.73;106072;1272;62145;-71
2021/12/28 05:51:33;;;;;;;19.40;10.40;;;;;;;-4.44;81.91;100875.33;105893;1272;61310;-69
2021/12/28 05:54:02;;;;;;;19.00;10.10;;;;;;;-4.43;81.87;100875.48;105844;1272;74422;-70
2021/12/28 05:56:31;;;;;;;19.80;9.80;;;;;;;-4.47;81.84;100877.55;105806;1269;71177;-69
2021/12/28 05:59:01;;;;;;;18.70;9.00;;;;;;;-4.40;82.07;100876.65;105728;1273;70543;-69
2021/12/28 06:01:29;;;;;;;18.10;9.90;;;;;;;-4.40;81.74;100873.24;105681;1272;74128;-70
2021/12/28 06:03:59;;;;;;;17.90;9.00;;;;;;;-4.46;81.36;100876.02;105553;1272;60720;-67
2021/12/28 06:06:29;;;;;;;15.90;8.80;;;;;;;-4.46;81.55;100873.13;105635;1269;61043;-69
2021/12/28 06:08:59;;;;;;;18.50;9.90;;;;;;;-4.47;81.40;100876.20;105715;1269;73345;-69
2021/12/28 06:11:28;;;;;;;21.10;9.90;;;;;;;-4.52;81.42;100876.58;105633;1271;70617;-68
2021/12/28 06:13:58;;;;;;;18.80;9.00;;;;;;;-4.49;81.35;100875.54;105697;1272;69419;-69
2021/12/28 06:16:34;;;;;;;17.30;7.80;;;;;;;-4.48;81.80;100875.02;105683;1272;75906;-72
2021/12/28 06:19:04;;;;;;;15.70;7.60;;;;;;;-4.41;81.32;100869.70;105705;1272;61321;-70
2021/12/28 06:21:34;;;;;;;17.20;8.70;;;;;;;-4.33;81.46;100880.48;105772;1270;60287;-70
2021/12/28 06:24:07;;;;;;;19.80;9.50;;;;;;;-4.35;81.12;100881.19;105807;1270;75311;-70
2021/12/28 06:26:37;;;;;;;17.10;8.30;;;;;;;-4.36;80.85;100882.56;105750;1269;70768;-69
2021/12/28 06:29:07;;;;;;;14.20;8.00;;;;;;;-4.38;80.77;100883.42;106109;1269;68502;-69
2021/12/28 06:31:36;;;;;;;15.90;8.40;;;;;;;-4.35;81.09;100882.22;105823;1272;74591;-72
2021/12/28 06:34:07;;;;;;;14.80;8.00;;;;;;;-4.33;80.77;100881.34;105745;1271;59007;-72
2021/12/28 06:36:37;;;;;;;16.10;8.10;;;;;;;-4.33;80.43;100879.81;105653;1272;61370;-75
2021/12/28 06:39:06;;;;;;;15.00;7.30;;;;;;;-4.31;80.40;100877.76;105710;1271;74883;-73
2021/12/28 06:41:36;;;;;;;12.80;7.30;;;;;;;-4.28;80.17;100881.13;105767;1269;70312;-74
2021/12/28 06:44:10;;;;;;;16.20;7.50;;;;;;;-4.27;80.34;100876.88;105688;1272;69843;-73
2021/12/28 06:46:39;;;;;;;15.50;8.20;;;;;;;-4.30;80.04;100879.79;105663;1269;74137;-75
2021/12/28 06:49:08;;;;;;;17.00;8.70;;;;;;;-4.26;79.80;100878.57;105625;1272;61457;-71
2021/12/28 06:51:37;;;;;;;16.00;7.70;;;;;;;-4.29;79.42;100886.59;105685;1272;59702;-69
2021/12/28 06:54:06;;;;;;;16.80;9.00;;;;;;;-4.20;79.99;100889.58;105854;1272;72606;-73
2021/12/28 06:56:35;;;;;;;15.00;8.30;;;;;;;-4.15;79.63;100893.42;105830;1269;71825;-69
2021/12/28 06:59:05;;;;;;;16.80;7.60;;;;;;;-4.13;79.22;100890.36;105786;1269;71070;-71
2021/12/28 07:01:34;;;;;;;15.20;8.20;;;;;;;-4.07;79.13;100887.91;105809;1272;72779;-72
2021/12/28 07:04:04;;;;;;;18.40;8.10;;;;;;;-4.09;78.87;100890.14;105793;1272;62141;-73
2021/12/28 07:06:33;;;;;;;19.30;9.50;;;;;;;-4.11;78.92;100895.45;106121;1272;62941;-70
2021/12/28 07:09:02;;;;;;;17.80;8.50;;;;;;;-4.06;78.81;100890.98;105838;1270;74222;-71
2021/12/28 07:11:31;;;;;;;20.70;9.30;;;;;;;-3.99;78.69;100894.64;105766;1271;70766;-70
2021/12/28 07:14:00;;;;;;;16.70;8.50;;;;;;;-3.96;78.27;100897.02;106014;1269;68198;-71
2021/12/28 07:16:29;;;;;;;18.90;8.70;;;;;;;-3.84;78.46;100896.38;106033;1269;72135;-70
2021/12/28 07:18:58;;;;;;;17.80;8.70;;;;;;;-3.84;78.63;100898.75;106042;1268;59697;-70
2021/12/28 07:21:27;;;;;;;17.00;9.10;;;;;;;-3.75;78.69;100901.90;106004;1271;59792;-70
2021/12/28 07:23:56;;;;;;;13.40;6.30;;;;;;;-3.74;77.49;100903.41;106044;1267;72774;-71
2021/12/28 07:26:25;;;;;;;13.10;7.10;;;;;;;-3.62;77.57;100899.03;105989;1269;69920;-69
2021/12/28 07:28:54;;;;;;;16.30;8.10;;;;;;;-3.63;76.86;100899.38;105856;1269;69856;-70
2021/12/28 07:31:24;;;;;;;21.00;9.20;;;;;;;-3.62;76.65;100904.48;105791;1269;74250;-68
2021/12/28 07:33:53;;;;;;;16.70;8.30;;;;;;;-3.50;76.80;100899.40;105940;1270;59609;-69
2021/12/28 07:36:23;;;;;;;15.80;8.70;;;;;;;-3.47;75.82;100900.21;105983;1269;62754;-69
2021/12/28 07:38:52;;;;;;;17.70;9.20;;;;;;;-3.56;75.80;100908.66;105925;1268;73019;-71
2021/12/28 07:41:22;;;;;;;12.50;6.30;;;;;;;-3.41;76.01;100904.75;105787;1269;69692;-69
2021/12/28 07:43:51;;;;;;;20.00;9.00;;;;;;;-3.33;75.34;100907.72;105894;1267;69549;-68
2021/12/28 07:46:21;;;;;;;19.20;8.70;;;;;;;-3.12;76.26;100908.30;105780;1269;73683;-68
2021/12/28 07:48:50;;;;;;;14.10;7.00;;;;;;;-2.91;76.18;100909.89;105901;1269;59606;-68
2021/12/28 07:51:19;;;;;;;15.80;8.50;;;;;;;-2.78;74.65;100910.05;105845;1269;58948;-68
2021/12/28 07:53:48;;;;;;;17.60;8.00;;;;;;;-2.78;75.15;100912.61;106010;1269;72086;-69
2021/12/28 07:56:17;;;;;;;18.00;9.10;;;;;;;-2.74;76.04;100916.14;106055;1270;69869;-70
2021/12/28 07:58:47;;;;;;;20.70;9.10;;;;;;;-2.76;75.79;100919.92;106062;1269;71717;-69
2021/12/28 08:01:15;;;;;;;15.70;7.90;;;;;;;-2.93;74.04;100910.77;105808;1269;74890;-67
2021/12/28 08:03:45;;;;;;;18.30;8.50;;;;;;;-2.88;74.87;100923.49;105921;1271;61547;-67
2021/12/28 08:06:14;;;;;;;14.40;7.20;;;;;;;-2.80;76.44;100924.40;106095;1269;58934;-67
2021/12/28 08:08:43;;;;;;;14.60;8.40;;;;;;;-2.84;76.01;100920.71;105929;1269;72857;-69
2021/12/28 08:11:12;;;;;;;15.60;8.10;;;;;;;-2.83;76.86;100921.57;106035;1269;72713;-70
2021/12/28 08:13:41;;;;;;;17.90;8.80;;;;;;;-3.09;75.42;100922.75;106111;1268;70891;-70
2021/12/28 08:16:10;;;;;;;18.10;8.20;;;;;;;-3.10;75.79;100917.31;105834;1272;73151;-68
2021/12/28 08:18:39;;;;;;;16.90;8.30;;;;;;;-3.00;75.89;100925.52;106075;1269;62207;-69
2021/12/28 08:21:09;;;;;;;15.70;7.20;;;;;;;-2.94;75.68;100923.74;105955;1269;61082;-70
2021/12/28 08:23:38;;;;;;;12.90;7.20;;;;;;;-2.90;76.09;100918.92;106007;1269;74411;-71
2021/12/28 08:26:07;;;;;;;16.90;8.00;;;;;;;-3.27;75.67;100919.22;106008;1269;72434;-68
2021/12/28 08:28:37;;;;;;;13.60;7.30;;;;;;;-3.13;76.41;100920.42;105935;1269;69595;-68
2021/12/28 08:31:06;;;;;;;14.50;7.40;;;;;;;-3.11;76.41;100915.80;105876;1269;74306;-68
2021/12/28 08:33:35;;;;;;;13.40;6.90;;;;;;;-3.13;76.57;100920.92;105792;1269;60234;-68
2021/12/28 08:36:04;;;;;;;16.90;7.90;;;;;;;-3.01;76.53;100920.09;106017;1271;61709;-69
2021/12/28 08:38:34;;;;;;;12.50;6.90;;;;;;;-2.92;76.57;100917.23;105932;1269;74044;-68
2021/12/28 08:41:03;;;;;;;17.20;8.10;;;;;;;-2.97;75.32;100917.30;105869;1271;71701;-69
2021/12/28 08:43:32;;;;;;;17.50;8.10;;;;;;;-2.81;75.95;100920.66;106137;1269;70189;-69
2021/12/28 08:46:01;;;;;;;16.90;7.90;;;;;;;-2.85;75.43;100918.16;106096;1269;72464;-69
2021/12/28 08:48:30;;;;;;;16.00;8.40;;;;;;;-2.72;75.61;100919.52;106069;1267;58870;-68
2021/12/28 08:50:59;;;;;;;17.70;9.50;;;;;;;-2.62;75.41;100920.74;105961;1269;59602;-69
2021/12/28 08:53:28;;;;;;;20.40;9.10;;;;;;;-2.44;75.70;100921.84;106054;1269;72839;-68
2021/12/28 08:55:57;;;;;;;15.80;8.90;;;;;;;-2.27;74.85;100918.68;105995;1268;73326;-68
2021/12/28 08:58:26;;;;;;;16.60;9.00;;;;;;;-2.12;74.43;100911.08;106069;1269;70413;-69
2021/12/28 09:00:55;;;;;;;14.40;7.50;;;;;;;-2.01;74.29;100909.53;105990;1270;74082;-69
2021/12/28 09:03:24;;;;;;;16.50;9.00;;;;;;;-1.91;73.76;100912.07;105776;1272;60778;-69
2021/12/28 09:05:53;;;;;;;17.70;9.10;;;;;;;-2.07;72.79;100912.20;105778;1269;60588;-68
2021/12/28 09:08:22;;;;;;;16.00;8.60;;;;;;;-1.77;73.68;100908.59;105841;1271;72624;-69
2021/12/28 09:10:52;;;;;;;15.20;8.50;;;;;;;-1.64;73.53;100908.34;105723;1271;72589;-70
2021/12/28 09:13:21;;;;;;;16.20;8.20;;;;;;;-1.56;73.18;100907.48;105972;1269;70562;-70
2021/12/28 09:15:50;;;;;;;15.30;7.50;;;;;;;-1.38;73.72;100910.05;105904;1269;72324;-71
2021/12/28 09:18:19;;;;;;;18.60;8.70;;;;;;;-1.36;73.25;100906.24;105870;1269;59670;-68
2021/12/28 09:20:50;;;;;;;12.40;7.40;;;;;;;-1.32;72.85;100906.52;105989;1269;59872;-71
2021/12/28 09:23:19;;;;;;;13.80;7.00;;;;;;;-1.43;71.64;100902.63;105963;1270;72991;-70
2021/12/28 09:26:08;;;;;;;16.10;7.80;;;;;;;-1.60;71.25;100901.59;105889;1270;72260;-71
2021/12/28 09:28:37;;;;;;;12.10;6.60;;;;;;;-1.59;71.57;100898.34;105885;1269;69678;-87
2021/12/28 09:31:06;;;;;;;12.90;7.30;;;;;;;-1.32;71.87;100899.00;105659;1269;72430;-70
2021/12/28 09:33:36;;;;;;;15.50;8.10;;;;;;;-1.29;72.08;100893.98;105757;1269;60909;-72
2021/12/28 09:36:07;;;;;;;11.90;7.00;;;;;;;-1.22;71.76;100899.81;105768;1269;62204;-68
2021/12/28 09:38:37;;;;;;;13.30;6.50;;;;;;;-1.17;70.73;100893.05;105797;1271;73497;-70
2021/12/28 09:41:06;;;;;;;11.80;7.30;;;;;;;-1.19;69.84;100889.84;106031;1265;70995;-69
2021/12/28 09:43:37;;;;;;;17.20;7.90;;;;;;;-0.97;70.01;100884.92;105927;1269;69727;-71
2021/12/28 09:46:07;;;;;;;13.80;7.50;;;;;;;-0.96;69.08;100881.64;105752;1269;73666;-71
2021/12/28 09:48:37;;;;;;;19.20;8.60;;;;;;;-0.78;68.00;100880.58;105953;1267;59570;-75
2021/12/28 09:51:07;;;;;;;15.90;8.70;;;;;;;-0.46;68.46;100883.05;105948;1272;61040;-71
2021/12/28 09:53:38;;;;;;;18.50;9.40;;;;;;;-0.39;68.23;100877.23;105827;1271;72466;-71
2021/12/28 09:56:07;;;;;;;18.50;9.70;;;;;;;-0.68;67.58;100877.60;105964;1266;68826;-71
2021/12/28 09:58:39;;;;;;;18.50;10.20;;;;;;;-0.82;67.19;100877.05;106139;1271;71662;-72
2021/12/28 10:01:10;;;;;;;20.90;10.00;;;;;;;-0.57;67.87;100878.70;105982;1266;75495;-76
2021/12/28 10:03:39;;;;;;;15.80;9.70;;;;;;;-0.34;68.84;100884.32;105949;1271;61002;-73
2021/12/28 10:06:21;;;;;;;17.50;9.70;;;;;;;-0.35;67.84;100879.37;105820;1271;59526;-73
2021/12/28 10:09:25;;;;;;;17.20;9.10;;;;;;;-0.40;67.86;100880.52;106021;1266;72505;-72
2021/12/28 10:11:55;;;;;;;17.60;7.70;;;;;;;-0.44;68.07;100873.27;105985;1269;69105;-70
2021/12/28 10:14:29;;;;;;;14.60;8.30;;;;;;;-0.58;67.34;100870.69;105768;1267;70250;-71
2021/12/28 10:17:02;;;;;;;14.20;7.50;;;;;;;-0.71;67.79;100867.41;106117;1269;71766;-71
2021/12/28 10:19:41;;;;;;;18.10;8.40;;;;;;;-0.73;68.05;100861.81;106013;1266;63252;-73
2021/12/28 10:22:48;;;;;;;20.70;9.50;;;;;;;-0.91;67.97;100866.47;106123;1269;62084;-72
2021/12/28 10:25:24;;;;;;;16.20;8.90;;;;;;;-0.94;68.88;100860.77;105755;1269;73941;-71
2021/12/28 10:28:04;;;;;;;15.00;8.60;;;;;;;-1.01;68.19;100864.15;106103;1269;70921;-73
2021/12/28 10:30:40;;;;;;;15.40;8.20;;;;;;;-1.09;68.52;100854.58;106055;1269;67850;-85
2021/12/28 10:33:17;;;;;;;14.70;8.50;;;;;;;-1.29;68.34;100851.09;105996;1269;72981;-72
2021/12/28 10:36:32;;;;;;;17.30;9.50;;;;;;;-1.32;69.50;100850.48;105922;1271;61626;-77
2021/12/28 10:39:02;;;;;;;15.40;8.80;;;;;;;-1.21;69.24;100849.88;106137;1269;60938;-70
2021/12/28 10:41:31;;;;;;;15.60;8.70;;;;;;;-1.13;68.49;100846.48;106171;1269;74487;-80
2021/12/28 10:44:01;;;;;;;18.60;10.00;;;;;;;-1.27;68.37;100852.92;106042;1268;72323;-84
2021/12/28 10:46:29;;;;;;;17.90;10.20;;;;;;;-1.64;68.56;100852.66;105953;1269;69046;-86
2021/12/28 10:49:02;;;;;;;15.40;8.10;;;;;;;-1.64;69.51;100851.13;106077;1269;74452;-79
2021/12/28 10:51:39;;;;;;;15.10;9.10;;;;;;;-1.44;70.01;100851.05;106119;1269;62724;-71
2021/12/28 10:56:59;;;;;;;16.50;8.20;;;;;;;-1.64;69.19;100853.16;106191;1268;74904;-73
2021/12/28 10:59:33;;;;;;;18.20;8.90;;;;;;;-1.58;69.28;100853.75;106055;1269;72911;-71
2021/12/28 11:02:03;;;;;;;16.10;9.10;;;;;;;-1.40;69.37;100854.23;105933;1269;70953;-73
2021/12/28 11:04:37;;;;;;;19.10;7.80;;;;;;;-1.37;68.46;100856.91;105904;1269;72450;-72
2021/12/28 11:07:08;;;;;;;17.10;9.10;;;;;;;-1.46;69.32;100855.89;105833;1268;62571;-71
2021/12/28 11:09:47;;;;;;;20.20;9.50;;;;;;;-1.60;69.10;100855.48;107452;1271;61124;-72
2021/12/28 11:12:16;;;;;;;16.00;8.90;;;;;;;-1.54;69.71;100854.67;106414;1269;72878;-73
2021/12/28 11:14:46;;;;;;;16.90;9.70;;;;;;;-1.92;69.58;100854.21;105858;1269;70429;-72
2021/12/28 11:17:15;;;;;;;17.10;8.40;;;;;;;-1.67;69.77;100859.23;105763;1269;69260;-73
2021/12/28 11:19:44;;;;;;;16.50;9.40;;;;;;;-1.71;69.87;100855.02;105849;1269;74235;-71
2021/12/28 11:22:14;;;;;;;14.40;8.70;;;;;;;-1.67;69.94;100852.55;105854;1269;61226;-76